sensor_id;sensor_type;location;lat;lon;timestamp;temperature;humidity
2543;DHT22;1116;51.502;7.414;2022-12-07T00:00:27;6.20;99.90
2543;DHT22;1116;51.502;7.414;2022-12-07T00:03:00;6.30;99.90
2543;DHT22;1116;51.502;7.414;2022-12-07T00:05:31;6.30;99.90
2543;DHT22;1116;51.502;7.414;2022-12-07T00:08:01;6.30;99.90
2543;DHT22;1116;51.502;7.414;2022-12-07T00:10:33;6.30;99.90
2543;DHT22;1116;51.502;7.414;2022-12-07T00:13:04;6.00;99.90
2543;DHT22;1116;51.502;7.414;2022-12-07T00:15:37;6.30;99.90
2543;DHT22;1116;51.502;7.414;2022-12-07T00:18:08;6.30;99.90
2543;DHT22;1116;51.502;7.414;2022-12-07T00:20:39;6.20;99.90
2543;DHT22;1116;51.502;7.414;2022-12-07T00:23:10;6.20;99.90
2543;DHT22;1116;51.502;7.414;2022-12-07T00:25:41;6.20;99.90
2543;DHT22;1116;51.502;7.414;2022-12-07T00:28:14;6.30;99.90
2543;DHT22;1116;51.502;7.414;2022-12-07T00:30:48;6.30;99.90
2543;DHT22;1116;51.502;7.414;2022-12-07T00:33:19;5.90;99.90
2543;DHT22;1116;51.502;7.414;2022-12-07T00:35:57;6.20;99.90
2543;DHT22;1116;51.502;7.414;2022-12-07T00:38:29;6.30;99.90
2543;DHT22;1116;51.502;7.414;2022-12-07T00:41:04;6.30;99.90
2543;DHT22;1116;51.502;7.414;2022-12-07T00:43:35;6.30;99.90
2543;DHT22;1116;51.502;7.414;2022-12-07T00:46:10;6.50;99.90
2543;DHT22;1116;51.502;7.414;2022-12-07T00:48:42;6.30;99.90
2543;DHT22;1116;51.502;7.414;2022-12-07T00:51:14;6.30;99.90
2543;DHT22;1116;51.502;7.414;2022-12-07T00:53:45;6.30;99.90
2543;DHT22;1116;51.502;7.414;2022-12-07T00:56:21;6.40;99.90
2543;DHT22;1116;51.502;7.414;2022-12-07T00:58:53;6.40;99.90
2543;DHT22;1116;51.502;7.414;2022-12-07T01:01:29;6.40;99.90
2543;DHT22;1116;51.502;7.414;2022-12-07T01:04:03;6.40;99.90
2543;DHT22;1116;51.502;7.414;2022-12-07T01:06:34;6.20;99.90
2543;DHT22;1116;51.502;7.414;2022-12-07T01:09:06;6.40;99.90
2543;DHT22;1116;51.502;7.414;2022-12-07T01:11:37;6.30;99.90
2543;DHT22;1116;51.502;7.414;2022-12-07T01:14:08;6.30;99.90
2543;DHT22;1116;51.502;7.414;2022-12-07T01:16:43;6.30;99.90
2543;DHT22;1116;51.502;7.414;2022-12-07T01:19:14;6.30;99.90
2543;DHT22;1116;51.502;7.414;2022-12-07T01:21:45;6.30;99.90
2543;DHT22;1116;51.502;7.414;2022-12-07T01:24:16;6.30;99.90
2543;DHT22;1116;51.502;7.414;2022-12-07T01:26:49;6.30;99.90
2543;DHT22;1116;51.502;7.414;2022-12-07T01:29:19;6.30;99.90
2543;DHT22;1116;51.502;7.414;2022-12-07T01:31:53;6.30;99.90
2543;DHT22;1116;51.502;7.414;2022-12-07T01:34:24;6.30;99.90
2543;DHT22;1116;51.502;7.414;2022-12-07T01:36:55;6.40;99.90
2543;DHT22;1116;51.502;7.414;2022-12-07T01:39:25;6.30;99.90
2543;DHT22;1116;51.502;7.414;2022-12-07T01:41:58;6.40;99.90
2543;DHT22;1116;51.502;7.414;2022-12-07T01:44:32;6.30;99.90
2543;DHT22;1116;51.502;7.414;2022-12-07T01:47:06;6.10;99.90
2543;DHT22;1116;51.502;7.414;2022-12-07T01:49:42;6.30;99.90
2543;DHT22;1116;51.502;7.414;2022-12-07T01:52:25;6.20;99.90
2543;DHT22;1116;51.502;7.414;2022-12-07T01:55:01;6.20;99.90
2543;DHT22;1116;51.502;7.414;2022-12-07T01:57:37;6.20;99.90
2543;DHT22;1116;51.502;7.414;2022-12-07T02:00:12;6.20;99.90
2543;DHT22;1116;51.502;7.414;2022-12-07T02:02:52;6.30;99.90
2543;DHT22;1116;51.502;7.414;2022-12-07T02:05:25;6.30;99.90
2543;DHT22;1116;51.502;7.414;2022-12-07T02:07:58;6.20;99.90
2543;DHT22;1116;51.502;7.414;2022-12-07T02:10:32;6.60;99.90
2543;DHT22;1116;51.502;7.414;2022-12-07T02:13:05;6.20;99.90
2543;DHT22;1116;51.502;7.414;2022-12-07T02:15:54;6.30;99.90
2543;DHT22;1116;51.502;7.414;2022-12-07T02:18:40;6.30;99.90
2543;DHT22;1116;51.502;7.414;2022-12-07T02:21:26;6.30;99.90
2543;DHT22;1116;51.502;7.414;2022-12-07T02:24:15;6.30;99.90
2543;DHT22;1116;51.502;7.414;2022-12-07T02:27:07;6.30;99.90
2543;DHT22;1116;51.502;7.414;2022-12-07T02:29:46;6.30;99.90
2543;DHT22;1116;51.502;7.414;2022-12-07T02:32:20;6.30;99.90
2543;DHT22;1116;51.502;7.414;2022-12-07T02:34:56;6.20;99.90
2543;DHT22;1116;51.502;7.414;2022-12-07T02:37:35;6.20;99.90
2543;DHT22;1116;51.502;7.414;2022-12-07T02:40:16;6.20;99.90
2543;DHT22;1116;51.502;7.414;2022-12-07T02:42:51;6.30;99.90
2543;DHT22;1116;51.502;7.414;2022-12-07T02:45:29;6.20;99.90
2543;DHT22;1116;51.502;7.414;2022-12-07T02:48:02;6.20;99.90
2543;DHT22;1116;51.502;7.414;2022-12-07T02:50:34;6.40;99.90
2543;DHT22;1116;51.502;7.414;2022-12-07T02:53:05;6.20;99.90
2543;DHT22;1116;51.502;7.414;2022-12-07T02:55:39;6.20;99.90
2543;DHT22;1116;51.502;7.414;2022-12-07T02:58:22;6.20;99.90
2543;DHT22;1116;51.502;7.414;2022-12-07T03:01:09;6.20;99.90
2543;DHT22;1116;51.502;7.414;2022-12-07T03:03:47;6.20;99.90
2543;DHT22;1116;51.502;7.414;2022-12-07T03:06:23;6.10;99.90
2543;DHT22;1116;51.502;7.414;2022-12-07T03:08:57;6.10;99.90
2543;DHT22;1116;51.502;7.414;2022-12-07T03:11:39;6.00;99.90
2543;DHT22;1116;51.502;7.414;2022-12-07T03:14:16;6.00;99.90
2543;DHT22;1116;51.502;7.414;2022-12-07T03:16:53;6.00;99.90
2543;DHT22;1116;51.502;7.414;2022-12-07T03:19:26;5.90;99.90
2543;DHT22;1116;51.502;7.414;2022-12-07T03:22:00;5.80;99.90
2543;DHT22;1116;51.502;7.414;2022-12-07T03:24:36;5.70;99.90
2543;DHT22;1116;51.502;7.414;2022-12-07T03:27:11;5.70;99.90
2543;DHT22;1116;51.502;7.414;2022-12-07T03:29:49;5.60;99.90
2543;DHT22;1116;51.502;7.414;2022-12-07T03:32:27;5.60;99.90
2543;DHT22;1116;51.502;7.414;2022-12-07T03:35:03;5.60;99.90
2543;DHT22;1116;51.502;7.414;2022-12-07T03:37:39;5.60;99.90
2543;DHT22;1116;51.502;7.414;2022-12-07T03:40:15;5.50;99.90
2543;DHT22;1116;51.502;7.414;2022-12-07T03:42:48;5.50;99.90
2543;DHT22;1116;51.502;7.414;2022-12-07T03:45:24;5.50;99.90
2543;DHT22;1116;51.502;7.414;2022-12-07T03:48:05;5.50;99.90
2543;DHT22;1116;51.502;7.414;2022-12-07T03:50:45;5.50;99.90
2543;DHT22;1116;51.502;7.414;2022-12-07T03:53:20;5.50;99.90
2543;DHT22;1116;51.502;7.414;2022-12-07T03:55:52;5.40;99.90
2543;DHT22;1116;51.502;7.414;2022-12-07T03:58:26;5.30;99.90
2543;DHT22;1116;51.502;7.414;2022-12-07T04:00:57;5.30;99.90
2543;DHT22;1116;51.502;7.414;2022-12-07T04:03:30;5.20;99.90
2543;DHT22;1116;51.502;7.414;2022-12-07T04:06:01;5.20;99.90
2543;DHT22;1116;51.502;7.414;2022-12-07T04:08:32;5.10;99.90
2543;DHT22;1116;51.502;7.414;2022-12-07T04:11:03;5.10;99.90
2543;DHT22;1116;51.502;7.414;2022-12-07T04:13:34;5.10;99.90
2543;DHT22;1116;51.502;7.414;2022-12-07T04:16:25;5.10;99.90
2543;DHT22;1116;51.502;7.414;2022-12-07T04:18:58;5.10;99.90
2543;DHT22;1116;51.502;7.414;2022-12-07T04:21:32;4.80;99.90
2543;DHT22;1116;51.502;7.414;2022-12-07T04:24:03;5.10;99.90
2543;DHT22;1116;51.502;7.414;2022-12-07T04:26:36;5.10;99.90
2543;DHT22;1116;51.502;7.414;2022-12-07T04:29:11;5.10;99.90
2543;DHT22;1116;51.502;7.414;2022-12-07T04:31:42;5.10;99.90
2543;DHT22;1116;51.502;7.414;2022-12-07T04:34:17;5.00;99.90
2543;DHT22;1116;51.502;7.414;2022-12-07T04:36:50;5.00;99.90
2543;DHT22;1116;51.502;7.414;2022-12-07T04:39:23;5.00;99.90
2543;DHT22;1116;51.502;7.414;2022-12-07T04:41:55;5.00;99.90
2543;DHT22;1116;51.502;7.414;2022-12-07T04:44:28;5.00;99.90
2543;DHT22;1116;51.502;7.414;2022-12-07T04:46:59;5.10;99.90
2543;DHT22;1116;51.502;7.414;2022-12-07T04:49:33;5.50;99.90
2543;DHT22;1116;51.502;7.414;2022-12-07T04:52:04;5.10;99.90
2543;DHT22;1116;51.502;7.414;2022-12-07T04:54:35;5.10;99.90
2543;DHT22;1116;51.502;7.414;2022-12-07T04:57:06;5.10;99.90
2543;DHT22;1116;51.502;7.414;2022-12-07T04:59:37;5.10;99.90
2543;DHT22;1116;51.502;7.414;2022-12-07T05:02:12;5.10;99.90
2543;DHT22;1116;51.502;7.414;2022-12-07T05:04:45;5.20;99.90
2543;DHT22;1116;51.502;7.414;2022-12-07T05:07:16;5.10;99.90
2543;DHT22;1116;51.502;7.414;2022-12-07T05:09:47;4.80;99.90
2543;DHT22;1116;51.502;7.414;2022-12-07T05:12:18;5.10;99.90
2543;DHT22;1116;51.502;7.414;2022-12-07T05:14:50;5.20;99.90
2543;DHT22;1116;51.502;7.414;2022-12-07T05:17:23;5.20;99.90
2543;DHT22;1116;51.502;7.414;2022-12-07T05:19:57;5.20;99.90
2543;DHT22;1116;51.502;7.414;2022-12-07T05:22:28;5.30;99.90
2543;DHT22;1116;51.502;7.414;2022-12-07T05:25:01;5.20;99.90
2543;DHT22;1116;51.502;7.414;2022-12-07T05:27:32;5.20;99.90
2543;DHT22;1116;51.502;7.414;2022-12-07T05:30:04;5.20;99.90
2543;DHT22;1116;51.502;7.414;2022-12-07T05:32:39;5.20;99.90
2543;DHT22;1116;51.502;7.414;2022-12-07T05:35:14;5.20;99.90
2543;DHT22;1116;51.502;7.414;2022-12-07T05:37:46;5.20;99.90
2543;DHT22;1116;51.502;7.414;2022-12-07T05:40:18;5.20;99.90
2543;DHT22;1116;51.502;7.414;2022-12-07T05:42:49;5.20;99.90
2543;DHT22;1116;51.502;7.414;2022-12-07T05:45:19;5.20;99.90
2543;DHT22;1116;51.502;7.414;2022-12-07T05:47:53;5.10;99.90
2543;DHT22;1116;51.502;7.414;2022-12-07T05:50:26;5.20;99.90
2543;DHT22;1116;51.502;7.414;2022-12-07T05:52:57;5.20;99.90
2543;DHT22;1116;51.502;7.414;2022-12-07T05:55:27;5.20;99.90
2543;DHT22;1116;51.502;7.414;2022-12-07T05:57:58;5.20;99.90
2543;DHT22;1116;51.502;7.414;2022-12-07T06:00:42;5.20;99.90
2543;DHT22;1116;51.502;7.414;2022-12-07T06:03:18;5.20;99.90
2543;DHT22;1116;51.502;7.414;2022-12-07T06:05:52;5.10;99.90
2543;DHT22;1116;51.502;7.414;2022-12-07T06:08:23;5.10;99.90
2543;DHT22;1116;51.502;7.414;2022-12-07T06:10:54;5.20;99.90
2543;DHT22;1116;51.502;7.414;2022-12-07T06:13:39;5.20;99.90
2543;DHT22;1116;51.502;7.414;2022-12-07T06:16:14;5.20;99.90
2543;DHT22;1116;51.502;7.414;2022-12-07T06:18:47;5.20;99.90
2543;DHT22;1116;51.502;7.414;2022-12-07T06:21:20;5.20;99.90
2543;DHT22;1116;51.502;7.414;2022-12-07T06:23:53;5.20;99.90
2543;DHT22;1116;51.502;7.414;2022-12-07T06:26:24;5.10;99.90
2543;DHT22;1116;51.502;7.414;2022-12-07T06:28:55;5.10;99.90
2543;DHT22;1116;51.502;7.414;2022-12-07T06:31:25;5.10;99.90
2543;DHT22;1116;51.502;7.414;2022-12-07T06:34:00;5.10;99.90
2543;DHT22;1116;51.502;7.414;2022-12-07T06:36:34;5.20;99.90
2543;DHT22;1116;51.502;7.414;2022-12-07T06:39:06;5.20;99.90
2543;DHT22;1116;51.502;7.414;2022-12-07T06:41:37;5.10;99.90
2543;DHT22;1116;51.502;7.414;2022-12-07T06:44:11;5.10;99.90
2543;DHT22;1116;51.502;7.414;2022-12-07T06:46:42;5.20;99.90
2543;DHT22;1116;51.502;7.414;2022-12-07T06:49:13;5.10;99.90
2543;DHT22;1116;51.502;7.414;2022-12-07T06:51:47;5.10;99.90
2543;DHT22;1116;51.502;7.414;2022-12-07T06:54:19;5.10;99.90
2543;DHT22;1116;51.502;7.414;2022-12-07T06:56:55;5.20;99.90
2543;DHT22;1116;51.502;7.414;2022-12-07T06:59:26;5.20;99.90
2543;DHT22;1116;51.502;7.414;2022-12-07T07:01:59;5.10;99.90
2543;DHT22;1116;51.502;7.414;2022-12-07T07:04:30;5.10;99.90
2543;DHT22;1116;51.502;7.414;2022-12-07T07:07:04;5.10;99.90
2543;DHT22;1116;51.502;7.414;2022-12-07T07:09:34;5.00;99.90
2543;DHT22;1116;51.502;7.414;2022-12-07T07:12:05;4.90;99.90
2543;DHT22;1116;51.502;7.414;2022-12-07T07:14:37;4.90;99.90
2543;DHT22;1116;51.502;7.414;2022-12-07T07:17:07;5.00;99.90
2543;DHT22;1116;51.502;7.414;2022-12-07T07:19:39;5.00;99.90
2543;DHT22;1116;51.502;7.414;2022-12-07T07:22:12;5.30;99.90
2543;DHT22;1116;51.502;7.414;2022-12-07T07:24:43;5.00;99.90
2543;DHT22;1116;51.502;7.414;2022-12-07T07:27:14;5.00;99.90
2543;DHT22;1116;51.502;7.414;2022-12-07T07:29:45;5.00;99.90
2543;DHT22;1116;51.502;7.414;2022-12-07T07:32:16;5.00;99.90
2543;DHT22;1116;51.502;7.414;2022-12-07T07:34:47;4.90;99.90
2543;DHT22;1116;51.502;7.414;2022-12-07T07:37:21;4.80;99.90
2543;DHT22;1116;51.502;7.414;2022-12-07T07:39:52;4.80;99.90
2543;DHT22;1116;51.502;7.414;2022-12-07T07:42:24;4.80;99.90
2543;DHT22;1116;51.502;7.414;2022-12-07T07:44:55;4.70;99.90
2543;DHT22;1116;51.502;7.414;2022-12-07T07:47:27;4.70;99.90
2543;DHT22;1116;51.502;7.414;2022-12-07T07:49:58;4.70;99.90
2543;DHT22;1116;51.502;7.414;2022-12-07T07:52:36;4.60;99.90
2543;DHT22;1116;51.502;7.414;2022-12-07T07:55:07;4.70;99.90
2543;DHT22;1116;51.502;7.414;2022-12-07T07:57:39;4.70;99.90
2543;DHT22;1116;51.502;7.414;2022-12-07T08:00:17;4.70;99.90
2543;DHT22;1116;51.502;7.414;2022-12-07T08:02:48;4.70;99.90
2543;DHT22;1116;51.502;7.414;2022-12-07T08:05:19;4.60;99.90
2543;DHT22;1116;51.502;7.414;2022-12-07T08:07:53;4.60;99.90
2543;DHT22;1116;51.502;7.414;2022-12-07T08:10:24;4.70;99.90
2543;DHT22;1116;51.502;7.414;2022-12-07T08:12:55;4.70;99.90
2543;DHT22;1116;51.502;7.414;2022-12-07T08:15:39;4.60;99.90
2543;DHT22;1116;51.502;7.414;2022-12-07T08:18:15;4.60;99.90
2543;DHT22;1116;51.502;7.414;2022-12-07T08:20:46;4.60;99.90
2543;DHT22;1116;51.502;7.414;2022-12-07T08:23:19;4.70;99.90
2543;DHT22;1116;51.502;7.414;2022-12-07T08:26:05;4.70;99.90
2543;DHT22;1116;51.502;7.414;2022-12-07T08:28:37;4.80;99.90
2543;DHT22;1116;51.502;7.414;2022-12-07T08:31:10;4.70;99.90
2543;DHT22;1116;51.502;7.414;2022-12-07T08:33:42;4.80;99.90
2543;DHT22;1116;51.502;7.414;2022-12-07T08:36:13;4.80;99.90
2543;DHT22;1116;51.502;7.414;2022-12-07T08:38:46;4.90;99.90
2543;DHT22;1116;51.502;7.414;2022-12-07T08:41:37;5.00;99.90
2543;DHT22;1116;51.502;7.414;2022-12-07T08:44:08;5.10;99.90
2543;DHT22;1116;51.502;7.414;2022-12-07T08:46:41;5.20;99.90
2543;DHT22;1116;51.502;7.414;2022-12-07T08:49:18;5.10;99.90
2543;DHT22;1116;51.502;7.414;2022-12-07T08:51:49;5.20;99.90
2543;DHT22;1116;51.502;7.414;2022-12-07T08:54:24;5.30;99.90
2543;DHT22;1116;51.502;7.414;2022-12-07T08:56:55;5.40;99.90
2543;DHT22;1116;51.502;7.414;2022-12-07T08:59:27;5.40;99.90
2543;DHT22;1116;51.502;7.414;2022-12-07T09:02:03;5.50;99.90
2543;DHT22;1116;51.502;7.414;2022-12-07T09:04:34;5.60;99.90
2543;DHT22;1116;51.502;7.414;2022-12-07T09:07:05;5.60;99.90
2543;DHT22;1116;51.502;7.414;2022-12-07T09:09:39;5.50;99.90
2543;DHT22;1116;51.502;7.414;2022-12-07T09:12:10;5.50;99.90
2543;DHT22;1116;51.502;7.414;2022-12-07T09:14:41;5.40;99.90
2543;DHT22;1116;51.502;7.414;2022-12-07T09:17:12;5.40;99.90
2543;DHT22;1116;51.502;7.414;2022-12-07T09:19:47;5.40;99.90
2543;DHT22;1116;51.502;7.414;2022-12-07T09:22:18;5.40;99.90
2543;DHT22;1116;51.502;7.414;2022-12-07T09:24:51;5.30;99.90
2543;DHT22;1116;51.502;7.414;2022-12-07T09:27:22;5.40;99.90
2543;DHT22;1116;51.502;7.414;2022-12-07T09:29:55;5.40;99.90
2543;DHT22;1116;51.502;7.414;2022-12-07T09:32:27;5.80;99.90
2543;DHT22;1116;51.502;7.414;2022-12-07T09:35:00;5.50;99.90
2543;DHT22;1116;51.502;7.414;2022-12-07T09:37:31;5.50;99.90
2543;DHT22;1116;51.502;7.414;2022-12-07T09:40:07;5.60;99.90
2543;DHT22;1116;51.502;7.414;2022-12-07T09:42:40;5.70;99.90
2543;DHT22;1116;51.502;7.414;2022-12-07T09:45:19;5.60;99.90
2543;DHT22;1116;51.502;7.414;2022-12-07T09:47:52;5.90;99.90
2543;DHT22;1116;51.502;7.414;2022-12-07T09:50:25;5.60;99.90
2543;DHT22;1116;51.502;7.414;2022-12-07T09:53:06;5.70;99.90
2543;DHT22;1116;51.502;7.414;2022-12-07T09:55:41;6.20;99.90
2543;DHT22;1116;51.502;7.414;2022-12-07T09:58:20;5.70;99.90
2543;DHT22;1116;51.502;7.414;2022-12-07T10:00:56;5.70;99.90
2543;DHT22;1116;51.502;7.414;2022-12-07T10:03:29;6.00;99.90
2543;DHT22;1116;51.502;7.414;2022-12-07T10:06:00;5.60;99.90
2543;DHT22;1116;51.502;7.414;2022-12-07T10:08:31;5.60;99.90
2543;DHT22;1116;51.502;7.414;2022-12-07T10:11:04;5.60;99.90
2543;DHT22;1116;51.502;7.414;2022-12-07T10:13:39;5.60;99.90
2543;DHT22;1116;51.502;7.414;2022-12-07T10:16:32;5.70;99.90
2543;DHT22;1116;51.502;7.414;2022-12-07T10:19:19;5.70;99.90
2543;DHT22;1116;51.502;7.414;2022-12-07T10:22:03;5.70;99.90
2543;DHT22;1116;51.502;7.414;2022-12-07T10:24:35;5.70;99.90
2543;DHT22;1116;51.502;7.414;2022-12-07T10:27:19;5.80;99.90
2543;DHT22;1116;51.502;7.414;2022-12-07T10:29:53;5.80;99.90
2543;DHT22;1116;51.502;7.414;2022-12-07T10:32:32;5.80;99.90
2543;DHT22;1116;51.502;7.414;2022-12-07T10:35:22;5.80;99.90
2543;DHT22;1116;51.502;7.414;2022-12-07T10:37:55;5.90;99.90
2543;DHT22;1116;51.502;7.414;2022-12-07T10:40:30;6.00;99.90
2543;DHT22;1116;51.502;7.414;2022-12-07T10:43:18;6.00;99.90
2543;DHT22;1116;51.502;7.414;2022-12-07T10:49:15;6.10;99.90
2543;DHT22;1116;51.502;7.414;2022-12-07T10:51:56;6.10;99.90
2543;DHT22;1116;51.502;7.414;2022-12-07T10:54:39;6.20;99.90
2543;DHT22;1116;51.502;7.414;2022-12-07T10:57:26;6.30;99.90
2543;DHT22;1116;51.502;7.414;2022-12-07T11:00:16;6.30;99.90
2543;DHT22;1116;51.502;7.414;2022-12-07T11:05:54;6.40;99.90
2543;DHT22;1116;51.502;7.414;2022-12-07T11:08:39;6.40;99.90
2543;DHT22;1116;51.502;7.414;2022-12-07T11:11:19;6.40;99.90
2543;DHT22;1116;51.502;7.414;2022-12-07T11:13:59;6.40;99.90
2543;DHT22;1116;51.502;7.414;2022-12-07T11:16:44;6.40;99.90
2543;DHT22;1116;51.502;7.414;2022-12-07T11:19:28;6.40;99.90
2543;DHT22;1116;51.502;7.414;2022-12-07T11:22:06;6.50;99.90
2543;DHT22;1116;51.502;7.414;2022-12-07T11:24:44;6.70;99.90
2543;DHT22;1116;51.502;7.414;2022-12-07T11:27:24;6.50;99.90
2543;DHT22;1116;51.502;7.414;2022-12-07T11:30:11;6.50;99.90
2543;DHT22;1116;51.502;7.414;2022-12-07T11:32:54;6.50;99.90
2543;DHT22;1116;51.502;7.414;2022-12-07T11:35:37;6.50;99.90
2543;DHT22;1116;51.502;7.414;2022-12-07T11:38:12;6.60;99.90
2543;DHT22;1116;51.502;7.414;2022-12-07T11:40:53;6.60;99.90
2543;DHT22;1116;51.502;7.414;2022-12-07T11:43:52;6.60;99.90
2543;DHT22;1116;51.502;7.414;2022-12-07T11:46:27;6.60;99.90
2543;DHT22;1116;51.502;7.414;2022-12-07T11:49:03;6.60;99.90
2543;DHT22;1116;51.502;7.414;2022-12-07T11:51:39;6.70;99.90
2543;DHT22;1116;51.502;7.414;2022-12-07T11:54:15;6.70;99.90
2543;DHT22;1116;51.502;7.414;2022-12-07T11:56:52;7.10;99.90
2543;DHT22;1116;51.502;7.414;2022-12-07T11:59:31;6.70;99.90
2543;DHT22;1116;51.502;7.414;2022-12-07T12:02:13;6.70;99.90
2543;DHT22;1116;51.502;7.414;2022-12-07T12:04:53;6.70;99.90
2543;DHT22;1116;51.502;7.414;2022-12-07T12:07:26;6.70;99.90
2543;DHT22;1116;51.502;7.414;2022-12-07T12:10:21;6.70;99.90
2543;DHT22;1116;51.502;7.414;2022-12-07T12:13:14;7.00;99.90
2543;DHT22;1116;51.502;7.414;2022-12-07T12:16:21;6.80;99.90
2543;DHT22;1116;51.502;7.414;2022-12-07T12:19:07;6.80;99.90
2543;DHT22;1116;51.502;7.414;2022-12-07T12:21:47;6.90;99.90
2543;DHT22;1116;51.502;7.414;2022-12-07T12:24:27;6.90;99.90
2543;DHT22;1116;51.502;7.414;2022-12-07T12:27:06;6.80;99.90
2543;DHT22;1116;51.502;7.414;2022-12-07T12:29:40;6.80;99.90
2543;DHT22;1116;51.502;7.414;2022-12-07T12:32:15;7.20;99.90
2543;DHT22;1116;51.502;7.414;2022-12-07T12:35:19;6.90;99.90
2543;DHT22;1116;51.502;7.414;2022-12-07T12:37:55;6.80;99.90
2543;DHT22;1116;51.502;7.414;2022-12-07T12:40:49;6.90;99.90
2543;DHT22;1116;51.502;7.414;2022-12-07T12:43:44;7.10;99.90
2543;DHT22;1116;51.502;7.414;2022-12-07T12:49:36;6.80;99.90
2543;DHT22;1116;51.502;7.414;2022-12-07T12:58:46;7.20;99.90
2543;DHT22;1116;51.502;7.414;2022-12-07T13:01:45;6.70;99.90
2543;DHT22;1116;51.502;7.414;2022-12-07T13:10:43;6.70;99.90
2543;DHT22;1116;51.502;7.414;2022-12-07T13:13:35;6.80;99.90
2543;DHT22;1116;51.502;7.414;2022-12-07T13:22:39;6.80;99.90
2543;DHT22;1116;51.502;7.414;2022-12-07T13:25:30;6.80;99.90
2543;DHT22;1116;51.502;7.414;2022-12-07T13:28:07;6.70;99.90
2543;DHT22;1116;51.502;7.414;2022-12-07T13:30:46;6.70;99.90
2543;DHT22;1116;51.502;7.414;2022-12-07T13:33:27;6.70;99.90
2543;DHT22;1116;51.502;7.414;2022-12-07T13:36:00;7.10;99.90
2543;DHT22;1116;51.502;7.414;2022-12-07T13:38:34;6.70;99.90
2543;DHT22;1116;51.502;7.414;2022-12-07T13:41:13;6.70;99.90
2543;DHT22;1116;51.502;7.414;2022-12-07T13:43:48;6.80;99.90
2543;DHT22;1116;51.502;7.414;2022-12-07T13:46:26;6.70;99.90
2543;DHT22;1116;51.502;7.414;2022-12-07T13:49:20;6.70;99.90
2543;DHT22;1116;51.502;7.414;2022-12-07T13:51:54;6.70;99.90
2543;DHT22;1116;51.502;7.414;2022-12-07T13:54:29;6.70;99.90
2543;DHT22;1116;51.502;7.414;2022-12-07T13:57:01;6.70;99.90
2543;DHT22;1116;51.502;7.414;2022-12-07T13:59:32;6.70;99.90
2543;DHT22;1116;51.502;7.414;2022-12-07T14:02:18;6.80;99.90
2543;DHT22;1116;51.502;7.414;2022-12-07T14:05:07;6.70;99.90
2543;DHT22;1116;51.502;7.414;2022-12-07T14:07:53;6.80;99.90
2543;DHT22;1116;51.502;7.414;2022-12-07T14:10:26;6.80;99.90
2543;DHT22;1116;51.502;7.414;2022-12-07T14:13:17;6.70;99.90
2543;DHT22;1116;51.502;7.414;2022-12-07T14:15:53;6.30;99.90
2543;DHT22;1116;51.502;7.414;2022-12-07T14:18:31;6.60;99.90
2543;DHT22;1116;51.502;7.414;2022-12-07T14:21:17;6.60;99.90
2543;DHT22;1116;51.502;7.414;2022-12-07T14:24:18;6.60;99.90
2543;DHT22;1116;51.502;7.414;2022-12-07T14:26:50;6.60;99.90
2543;DHT22;1116;51.502;7.414;2022-12-07T14:29:29;7.00;99.90
2543;DHT22;1116;51.502;7.414;2022-12-07T14:32:21;6.60;99.90
2543;DHT22;1116;51.502;7.414;2022-12-07T14:35:00;6.40;99.90
2543;DHT22;1116;51.502;7.414;2022-12-07T14:37:36;6.30;99.90
2543;DHT22;1116;51.502;7.414;2022-12-07T14:40:12;6.10;99.90
2543;DHT22;1116;51.502;7.414;2022-12-07T14:42:48;6.10;99.90
2543;DHT22;1116;51.502;7.414;2022-12-07T14:45:22;6.00;99.90
2543;DHT22;1116;51.502;7.414;2022-12-07T14:47:53;5.90;99.90
2543;DHT22;1116;51.502;7.414;2022-12-07T14:50:52;6.00;99.30
2543;DHT22;1116;51.502;7.414;2022-12-07T14:53:48;5.90;98.50
2543;DHT22;1116;51.502;7.414;2022-12-07T14:56:26;5.90;99.00
2543;DHT22;1116;51.502;7.414;2022-12-07T14:58:57;5.80;97.80
2543;DHT22;1116;51.502;7.414;2022-12-07T15:01:28;5.80;98.70
2543;DHT22;1116;51.502;7.414;2022-12-07T15:03:59;5.70;98.40
2543;DHT22;1116;51.502;7.414;2022-12-07T15:06:33;5.70;99.30
2543;DHT22;1116;51.502;7.414;2022-12-07T15:09:05;5.60;99.70
2543;DHT22;1116;51.502;7.414;2022-12-07T15:11:36;5.60;99.90
2543;DHT22;1116;51.502;7.414;2022-12-07T15:14:11;5.60;99.90
2543;DHT22;1116;51.502;7.414;2022-12-07T15:16:46;5.50;99.90
2543;DHT22;1116;51.502;7.414;2022-12-07T15:19:41;5.50;99.90
2543;DHT22;1116;51.502;7.414;2022-12-07T15:22:14;5.40;99.90
2543;DHT22;1116;51.502;7.414;2022-12-07T15:24:45;5.50;99.90
2543;DHT22;1116;51.502;7.414;2022-12-07T15:27:16;5.40;99.90
2543;DHT22;1116;51.502;7.414;2022-12-07T15:29:48;5.40;99.90
2543;DHT22;1116;51.502;7.414;2022-12-07T15:32:24;5.40;99.90
2543;DHT22;1116;51.502;7.414;2022-12-07T15:34:55;5.40;99.90
2543;DHT22;1116;51.502;7.414;2022-12-07T15:37:32;5.30;99.90
2543;DHT22;1116;51.502;7.414;2022-12-07T15:40:03;5.30;99.90
2543;DHT22;1116;51.502;7.414;2022-12-07T15:42:35;5.20;99.90
2543;DHT22;1116;51.502;7.414;2022-12-07T15:45:08;5.20;99.90
2543;DHT22;1116;51.502;7.414;2022-12-07T15:47:43;5.20;99.90
2543;DHT22;1116;51.502;7.414;2022-12-07T15:50:35;5.20;99.90
2543;DHT22;1116;51.502;7.414;2022-12-07T15:53:08;5.20;99.90
2543;DHT22;1116;51.502;7.414;2022-12-07T15:55:42;5.20;99.90
2543;DHT22;1116;51.502;7.414;2022-12-07T15:58:21;5.30;99.90
2543;DHT22;1116;51.502;7.414;2022-12-07T16:00:52;5.30;99.90
2543;DHT22;1116;51.502;7.414;2022-12-07T16:03:23;5.80;99.90
2543;DHT22;1116;51.502;7.414;2022-12-07T16:05:57;5.40;99.90
2543;DHT22;1116;51.502;7.414;2022-12-07T16:08:32;5.30;99.90
2543;DHT22;1116;51.502;7.414;2022-12-07T16:11:05;5.30;99.90
2543;DHT22;1116;51.502;7.414;2022-12-07T16:13:36;5.30;99.90
2543;DHT22;1116;51.502;7.414;2022-12-07T16:16:09;5.30;99.90
2543;DHT22;1116;51.502;7.414;2022-12-07T16:18:49;5.30;99.90
2543;DHT22;1116;51.502;7.414;2022-12-07T16:21:21;5.30;99.90
2543;DHT22;1116;51.502;7.414;2022-12-07T16:23:57;5.30;99.90
2543;DHT22;1116;51.502;7.414;2022-12-07T16:26:28;5.50;99.90
2543;DHT22;1116;51.502;7.414;2022-12-07T16:28:59;5.40;99.90
2543;DHT22;1116;51.502;7.414;2022-12-07T16:31:30;5.40;99.90
2543;DHT22;1116;51.502;7.414;2022-12-07T16:34:06;5.40;99.90
2543;DHT22;1116;51.502;7.414;2022-12-07T16:36:36;5.40;99.90
2543;DHT22;1116;51.502;7.414;2022-12-07T16:39:33;5.40;99.90
2543;DHT22;1116;51.502;7.414;2022-12-07T16:42:04;5.40;99.90
2543;DHT22;1116;51.502;7.414;2022-12-07T16:44:43;5.40;99.90
2543;DHT22;1116;51.502;7.414;2022-12-07T16:47:16;5.40;99.90
2543;DHT22;1116;51.502;7.414;2022-12-07T16:49:46;5.40;99.90
2543;DHT22;1116;51.502;7.414;2022-12-07T16:52:22;5.40;99.90
2543;DHT22;1116;51.502;7.414;2022-12-07T16:54:56;5.40;99.90
2543;DHT22;1116;51.502;7.414;2022-12-07T16:57:27;5.50;99.90
2543;DHT22;1116;51.502;7.414;2022-12-07T17:00:01;5.40;99.90
2543;DHT22;1116;51.502;7.414;2022-12-07T17:02:40;5.40;99.90
2543;DHT22;1116;51.502;7.414;2022-12-07T17:05:11;5.50;99.90
2543;DHT22;1116;51.502;7.414;2022-12-07T17:07:44;5.80;99.90
2543;DHT22;1116;51.502;7.414;2022-12-07T17:10:26;5.50;99.90
2543;DHT22;1116;51.502;7.414;2022-12-07T17:12:58;5.50;99.90
2543;DHT22;1116;51.502;7.414;2022-12-07T17:15:29;5.60;99.90
2543;DHT22;1116;51.502;7.414;2022-12-07T17:17:59;5.50;99.90
2543;DHT22;1116;51.502;7.414;2022-12-07T17:20:29;5.50;99.90
2543;DHT22;1116;51.502;7.414;2022-12-07T17:23:00;5.50;99.90
2543;DHT22;1116;51.502;7.414;2022-12-07T17:25:36;5.50;99.90
2543;DHT22;1116;51.502;7.414;2022-12-07T17:28:07;5.60;99.90
2543;DHT22;1116;51.502;7.414;2022-12-07T17:30:39;5.60;99.90
2543;DHT22;1116;51.502;7.414;2022-12-07T17:33:10;5.60;99.90
2543;DHT22;1116;51.502;7.414;2022-12-07T17:35:41;5.60;99.90
2543;DHT22;1116;51.502;7.414;2022-12-07T17:38:14;5.90;99.90
2543;DHT22;1116;51.502;7.414;2022-12-07T17:40:48;5.60;99.90